Time;durP1;ratioP1;P1;durP2;ratioP2;P2;SDS_P1;SDS_P2;PMS_P1;PMS_P2;Temp;Humidity;BMP_temperature;BMP_pressure;BME280_temperature;BME280_humidity;BME280_pressure;Samples;Min_cycle;Max_cycle;Signal;HPM_P1;HPM_P2
2021/01/11 00:00:23;;;;;;;17.20;11.13;;;-1.60;99.90;;;-1.26;100.00;100890.47;4978750;28;20286;-62
2021/01/11 00:02:51;;;;;;;17.80;11.03;;;-1.80;99.90;;;-0.85;100.00;100887.88;4990473;28;20618;-62
2021/01/11 00:05:19;;;;;;;16.07;10.70;;;-1.80;99.90;;;-0.90;100.00;100889.22;4990244;28;20692;-62
2021/01/11 00:07:46;;;;;;;15.87;11.17;;;-1.80;99.90;;;-0.93;100.00;100890.31;4990414;28;20670;-62
2021/01/11 00:10:15;;;;;;;16.63;11.03;;;-1.70;99.90;;;-0.79;99.81;100879.41;4990538;28;20224;-63
2021/01/11 00:12:44;;;;;;;17.37;11.47;;;-1.70;99.90;;;-0.71;98.30;100886.72;4990522;28;20214;-62
2021/01/11 00:15:15;;;;;;;17.00;11.00;;;-1.70;99.90;;;-0.88;99.45;100882.81;4990457;28;20242;-62
2021/01/11 00:17:43;;;;;;;14.83;10.50;;;-1.70;99.90;;;-0.87;99.51;100883.66;4990329;28;20196;-61
2021/01/11 00:20:12;;;;;;;16.17;10.80;;;-1.70;99.90;;;-0.67;98.74;100873.09;4990176;28;20260;-63
2021/01/11 00:22:43;;;;;;;17.63;10.87;;;-1.70;99.90;;;-1.25;100.00;100878.94;4990186;28;20249;-62
2021/01/11 00:25:13;;;;;;;16.20;10.00;;;-1.80;99.90;;;-1.07;99.96;100872.13;4989961;28;20223;-62
2021/01/11 00:27:42;;;;;;;16.67;11.10;;;-1.80;99.90;;;-1.24;100.00;100880.63;4990206;28;20694;-62
2021/01/11 00:30:11;;;;;;;17.30;11.70;;;-1.90;99.90;;;-1.36;100.00;100876.34;4989865;28;20745;-62
2021/01/11 00:32:40;;;;;;;15.80;10.93;;;-2.00;99.90;;;-0.98;100.00;100889.03;4989879;28;20338;-62
2021/01/11 00:35:09;;;;;;;13.40;9.80;;;-2.00;99.90;;;-1.10;100.00;100885.63;4989645;28;20214;-62
2021/01/11 00:37:37;;;;;;;17.70;11.40;;;-2.00;99.90;;;-1.31;100.00;100876.81;4990237;28;20238;-62
2021/01/11 00:40:07;;;;;;;15.73;11.10;;;-2.10;99.90;;;-0.99;100.00;100868.84;4989933;28;20210;-62
2021/01/11 00:42:35;;;;;;;15.50;9.70;;;-2.00;99.90;;;-0.94;97.96;100870.13;4989923;28;20729;-62
2021/01/11 00:45:07;;;;;;;13.90;9.67;;;-2.00;99.90;;;-0.88;96.91;100872.25;4989959;28;20231;-62
2021/01/11 00:47:38;;;;;;;13.53;9.27;;;-1.90;99.90;;;-0.89;96.23;100873.22;4989988;28;21023;-62
2021/01/11 00:50:07;;;;;;;17.00;10.03;;;-1.80;99.90;;;-0.88;95.95;100863.50;4989736;28;20235;-62
2021/01/11 00:52:36;;;;;;;13.77;9.20;;;-1.80;99.90;;;-0.93;95.94;100858.59;4989749;28;20638;-62
2021/01/11 00:55:06;;;;;;;14.90;9.90;;;-1.70;99.90;;;-1.12;95.97;100861.13;4990097;28;20236;-62
2021/01/11 00:57:37;;;;;;;15.83;9.60;;;-1.70;99.90;;;-1.10;97.25;100853.06;4990485;28;20594;-62
2021/01/11 01:00:11;;;;;;;14.70;9.00;;;-1.80;99.90;;;-0.87;95.74;100852.78;4997189;28;20210;-62
2021/01/11 01:02:38;;;;;;;14.00;9.70;;;-1.80;99.90;;;-1.05;95.51;100843.78;4997046;28;20217;-63
2021/01/11 01:05:10;;;;;;;11.57;8.13;;;-1.70;99.90;;;-0.95;96.00;100842.03;4991011;28;20285;-62
2021/01/11 01:07:41;;;;;;;12.87;9.47;;;-1.70;99.90;;;-0.93;95.62;100855.13;4988901;28;20190;-62
2021/01/11 01:10:11;;;;;;;15.30;9.43;;;-1.70;99.90;;;-1.39;97.65;100861.56;4989434;28;20287;-62
2021/01/11 01:12:38;;;;;;;15.90;9.87;;;-1.80;99.90;;;-0.93;96.56;100849.84;4989238;28;20253;-62
2021/01/11 01:15:10;;;;;;;13.90;9.87;;;-1.90;99.90;;;-1.10;97.03;100853.06;4989474;28;20745;-62
2021/01/11 01:17:40;;;;;;;16.97;9.93;;;-1.90;99.90;;;-0.95;98.02;100854.41;4989359;28;20223;-61
2021/01/11 01:20:15;;;;;;;16.53;9.90;;;-1.90;99.90;;;-1.15;97.83;100863.16;4989112;28;20230;-62
2021/01/11 01:22:44;;;;;;;14.60;9.97;;;-1.90;99.90;;;-1.17;98.31;100859.81;4989623;28;20195;-63
2021/01/11 01:25:13;;;;;;;16.73;10.23;;;-1.90;99.90;;;-0.98;98.04;100859.97;4989194;28;20822;-69
2021/01/11 01:27:40;;;;;;;14.70;10.10;;;-1.90;99.90;;;-1.37;99.32;100857.00;4989435;28;20234;-68
2021/01/11 01:30:11;;;;;;;13.90;9.80;;;-2.00;99.90;;;-1.42;99.78;100864.47;4989400;28;20231;-68
2021/01/11 01:32:40;;;;;;;16.60;10.20;;;-2.10;99.90;;;-1.20;100.00;100860.06;4988775;28;20238;-68
2021/01/11 01:35:10;;;;;;;17.37;9.67;;;-2.10;99.90;;;-1.24;99.26;100867.41;4989283;28;20190;-69
2021/01/11 01:37:38;;;;;;;16.00;9.67;;;-2.00;99.90;;;-1.19;100.00;100864.38;4989082;28;20669;-67
2021/01/11 01:40:07;;;;;;;13.93;9.87;;;-2.10;99.90;;;-1.43;100.00;100877.81;4989162;28;20202;-67
2021/01/11 01:42:35;;;;;;;15.07;10.63;;;-2.10;99.90;;;-1.72;100.00;100874.91;4989104;28;20873;-67
2021/01/11 01:45:05;;;;;;;14.97;10.53;;;-2.30;99.90;;;-1.70;100.00;100880.06;4989101;28;20273;-67
2021/01/11 01:47:34;;;;;;;17.10;10.40;;;-2.30;99.90;;;-1.62;100.00;100874.97;4988974;28;20260;-68
2021/01/11 01:50:05;;;;;;;14.10;10.07;;;-2.30;99.90;;;-1.17;100.00;100870.38;4988745;28;20231;-68
2021/01/11 01:52:34;;;;;;;13.13;9.23;;;-2.20;99.90;;;-1.57;100.00;100876.28;4988929;28;20284;-69
2021/01/11 01:55:02;;;;;;;16.07;10.53;;;-2.20;99.90;;;-1.38;100.00;100865.91;4988868;28;20210;-67
2021/01/11 01:57:29;;;;;;;14.50;9.53;;;-2.30;99.90;;;-1.11;99.43;100864.56;4989003;28;20206;-68
2021/01/11 01:59:56;;;;;;;15.83;10.30;;;-2.20;99.90;;;-1.18;99.24;100860.78;4988957;28;20711;-67
2021/01/11 02:02:24;;;;;;;14.17;9.73;;;-2.10;99.90;;;-1.24;100.00;100856.84;4988842;28;20231;-67
2021/01/11 02:04:52;;;;;;;14.20;9.70;;;-2.10;99.90;;;-1.61;99.76;100868.75;4988928;28;20287;-68
2021/01/11 02:07:31;;;;;;;15.97;10.47;;;-2.10;99.90;;;-1.93;100.00;100874.00;4989004;28;20204;-68
2021/01/11 02:10:12;;;;;;;15.13;9.87;;;-2.30;99.90;;;-1.83;100.00;100871.44;4988787;28;20279;-68
2021/01/11 02:13:04;;;;;;;16.77;10.87;;;-2.30;99.90;;;-1.92;100.00;100875.66;4988698;28;20230;-67
2021/01/11 02:15:43;;;;;;;16.57;10.17;;;-2.40;99.90;;;-1.78;100.00;100862.22;4988879;28;20300;-68
2021/01/11 02:18:19;;;;;;;18.17;10.80;;;-2.50;99.90;;;-1.74;100.00;100871.53;4990062;28;20773;-68
2021/01/11 02:21:51;;;;;;;13.93;8.80;;;-2.50;99.90;;;-1.57;100.00;100867.53;4992315;28;20191;-68
2021/01/11 02:25:13;;;;;;;13.33;9.73;;;-2.50;99.90;;;-1.52;100.00;100873.28;5017213;28;20218;-67
2021/01/11 02:27:47;;;;;;;13.17;9.60;;;-2.40;99.90;;;-1.33;100.00;100863.72;5007054;28;20245;-67
2021/01/11 02:30:33;;;;;;;15.30;10.17;;;-2.30;99.90;;;-1.78;100.00;100867.50;4991610;28;20765;-67
2021/01/11 02:33:06;;;;;;;14.07;9.20;;;-2.40;99.90;;;-1.69;100.00;100871.19;4991271;28;20780;-67
2021/01/11 02:36:03;;;;;;;15.03;9.33;;;-2.40;99.90;;;-1.43;98.19;100865.44;4991457;28;20280;-68
2021/01/11 02:38:32;;;;;;;17.43;9.17;;;-2.30;99.90;;;-1.56;98.38;100867.44;4992158;28;20288;-67
2021/01/11 02:41:01;;;;;;;13.50;8.37;;;-2.30;99.90;;;-1.67;98.53;100861.31;4991499;28;20302;-68
2021/01/11 02:43:28;;;;;;;13.10;9.07;;;-2.30;99.90;;;-1.53;97.27;100863.69;4991444;28;20252;-67
2021/01/11 02:45:56;;;;;;;11.90;8.30;;;-2.30;99.90;;;-1.37;96.92;100861.47;4991383;28;20292;-68
2021/01/11 02:48:29;;;;;;;11.87;8.37;;;-2.30;99.90;;;-1.25;95.89;100856.00;4991168;28;20212;-69
2021/01/11 02:51:09;;;;;;;12.30;8.10;;;-2.20;99.90;;;-1.34;96.00;100861.22;4991613;28;20219;-67
2021/01/11 02:53:47;;;;;;;12.47;8.10;;;-2.20;99.90;;;-1.66;97.74;100855.09;4991706;28;20276;-68
2021/01/11 02:56:24;;;;;;;11.93;8.60;;;-2.30;99.90;;;-1.53;96.35;100850.47;4991347;28;20590;-67
2021/01/11 02:59:09;;;;;;;11.63;7.50;;;-2.30;99.90;;;-1.45;95.85;100846.25;4991351;28;20316;-68
2021/01/11 03:01:51;;;;;;;12.17;7.97;;;-2.30;99.90;;;-1.34;94.85;100840.06;4991106;28;20215;-68
2021/01/11 03:04:22;;;;;;;11.33;7.73;;;-2.20;99.90;;;-1.53;94.81;100838.13;4991833;28;20194;-66
2021/01/11 03:06:58;;;;;;;11.43;7.97;;;-2.20;99.90;;;-1.65;96.09;100835.63;4991437;28;20601;-67
2021/01/11 03:09:27;;;;;;;12.03;8.13;;;-2.30;99.90;;;-1.35;94.56;100828.66;4991395;28;20190;-68
2021/01/11 03:11:55;;;;;;;11.67;7.87;;;-2.20;99.90;;;-1.56;95.24;100825.19;4991306;28;20238;-67
2021/01/11 03:14:23;;;;;;;14.17;8.03;;;-2.30;99.90;;;-1.32;93.76;100822.31;4991302;28;20209;-68
2021/01/11 03:16:51;;;;;;;12.13;7.60;;;-2.20;99.90;;;-1.35;93.94;100812.81;4991218;28;20258;-67
2021/01/11 03:19:19;;;;;;;10.63;7.93;;;-2.10;99.90;;;-1.41;95.20;100812.50;4990979;28;20213;-67
2021/01/11 03:21:46;;;;;;;13.83;7.80;;;-2.20;99.90;;;-1.43;95.50;100794.13;4991000;28;20300;-67
2021/01/11 03:24:16;;;;;;;11.43;7.40;;;-2.20;99.90;;;-1.32;94.70;100794.06;4991187;28;20720;-68
2021/01/11 03:26:44;;;;;;;10.13;7.40;;;-2.10;99.90;;;-1.30;94.78;100788.63;4990848;28;20203;-67
2021/01/11 03:29:13;;;;;;;10.27;7.23;;;-2.10;99.90;;;-1.49;96.14;100783.25;4989531;28;20295;-67
2021/01/11 03:31:40;;;;;;;12.20;7.57;;;-2.20;99.90;;;-1.47;96.25;100783.94;4991583;28;20320;-68
2021/01/11 03:34:10;;;;;;;10.57;6.63;;;-2.20;99.90;;;-1.28;94.77;100784.91;4991875;28;20213;-67
2021/01/11 03:36:39;;;;;;;12.63;7.47;;;-2.20;99.90;;;-1.49;95.06;100788.53;4991830;28;20242;-67
2021/01/11 03:39:08;;;;;;;11.10;7.40;;;-2.20;99.90;;;-1.51;94.92;100787.81;4992001;28;20203;-69
2021/01/11 03:41:35;;;;;;;11.83;7.40;;;-2.20;99.90;;;-1.14;94.97;100796.13;4991794;28;20286;-68
2021/01/11 03:44:05;;;;;;;10.73;7.63;;;-2.10;99.90;;;-1.34;95.27;100805.75;4992103;28;20216;-68
2021/01/11 03:46:33;;;;;;;10.77;7.43;;;-2.10;99.90;;;-1.46;96.75;100798.81;4991879;28;20237;-68
2021/01/11 03:49:01;;;;;;;12.70;7.53;;;-2.10;99.90;;;-1.18;95.77;100790.25;4991273;28;20205;-67
2021/01/11 03:51:29;;;;;;;10.37;7.50;;;-2.10;99.90;;;-1.59;97.15;100788.44;4991446;28;20277;-68
2021/01/11 03:53:57;;;;;;;10.30;7.37;;;-2.20;99.90;;;-1.53;98.64;100787.09;4991270;28;20209;-68
2021/01/11 03:56:24;;;;;;;11.70;7.47;;;-2.30;99.90;;;-1.23;96.37;100789.00;4991092;28;20245;-68
2021/01/11 03:58:51;;;;;;;12.37;8.07;;;-2.20;99.90;;;-1.63;98.28;100779.09;4991793;28;20238;-67
2021/01/11 04:01:19;;;;;;;10.53;7.47;;;-2.20;99.90;;;-1.33;98.18;100770.41;4991498;28;20214;-68
2021/01/11 04:03:48;;;;;;;10.23;7.13;;;-2.20;99.90;;;-1.25;96.48;100771.44;4991101;28;20562;-67
2021/01/11 04:06:20;;;;;;;11.97;7.70;;;-2.10;99.90;;;-1.56;98.83;100766.22;4991621;28;20207;-69
2021/01/11 04:08:48;;;;;;;9.47;7.20;;;-2.20;99.90;;;-1.46;98.07;100767.13;4991685;28;20266;-68
2021/01/11 04:11:19;;;;;;;11.43;7.97;;;-2.20;99.90;;;-1.38;97.96;100767.31;4991561;28;20261;-68
2021/01/11 04:13:47;;;;;;;10.90;6.70;;;-2.20;99.90;;;-1.26;98.32;100772.44;4991252;28;20224;-67
2021/01/11 04:16:14;;;;;;;12.43;8.10;;;-2.20;99.90;;;-1.37;97.57;100771.66;4991394;28;20207;-68
2021/01/11 04:18:42;;;;;;;10.87;7.60;;;-2.20;99.90;;;-1.29;97.88;100777.97;4991393;28;20207;-68
2021/01/11 04:21:11;;;;;;;11.20;7.13;;;-2.10;99.90;;;-1.14;97.25;100773.19;4991291;28;20299;-67
2021/01/11 04:23:38;;;;;;;10.90;7.10;;;-2.10;99.90;;;-1.27;97.56;100770.72;4991422;28;20306;-68
2021/01/11 04:26:09;;;;;;;11.53;7.53;;;-2.10;99.90;;;-1.20;97.11;100765.75;4991194;28;20286;-69
2021/01/11 04:28:36;;;;;;;10.63;7.20;;;-2.00;99.90;;;-1.20;96.63;100776.31;4991284;28;20290;-68
2021/01/11 04:31:05;;;;;;;12.03;7.00;;;-2.00;99.90;;;-1.28;96.53;100769.06;4991294;28;20220;-67
2021/01/11 04:33:33;;;;;;;10.70;7.03;;;-2.00;99.90;;;-0.88;94.88;100774.44;4990789;28;20214;-67
2021/01/11 04:36:01;;;;;;;10.23;6.03;;;-1.90;99.90;;;-0.97;94.44;100771.75;4990933;28;20740;-68
2021/01/11 04:38:28;;;;;;;8.97;6.23;;;-1.80;99.90;;;-0.90;93.91;100765.81;4991175;28;20234;-68
2021/01/11 04:41:02;;;;;;;9.60;5.97;;;-1.80;99.90;;;-1.21;96.12;100769.38;4990501;28;20719;-68
2021/01/11 04:43:35;;;;;;;10.37;7.00;;;-1.80;99.90;;;-0.96;95.52;100765.50;4990843;28;20768;-68
2021/01/11 04:46:02;;;;;;;9.13;6.60;;;-1.80;99.90;;;-0.97;94.88;100762.00;4991072;28;20309;-67
2021/01/11 04:48:31;;;;;;;7.77;5.80;;;-1.80;99.90;;;-0.65;92.29;100753.94;4990768;28;20231;-68
2021/01/11 04:50:59;;;;;;;9.63;6.23;;;-1.60;99.90;;;-0.57;91.86;100749.66;4990491;28;20262;-62
2021/01/11 04:53:28;;;;;;;7.03;5.60;;;-1.60;99.90;;;-0.51;90.39;100749.09;4990509;28;20240;-61
2021/01/11 04:56:00;;;;;;;7.63;5.50;;;-1.50;99.90;;;-0.29;89.50;100746.25;4990326;28;20190;-63
2021/01/11 04:58:52;;;;;;;7.70;5.40;;;-1.30;99.90;;;-0.22;88.80;100736.78;4990821;28;20605;-61
2021/01/11 05:01:23;;;;;;;7.90;5.43;;;-1.20;99.90;;;-0.51;89.87;100740.34;4990311;28;20248;-62
2021/01/11 05:03:52;;;;;;;7.40;5.27;;;-1.20;99.90;;;-0.21;87.13;100733.19;4990755;28;20237;-61
2021/01/11 05:06:19;;;;;;;8.23;5.77;;;-1.10;99.90;;;-0.37;88.49;100735.50;4990467;28;20256;-61
2021/01/11 05:08:46;;;;;;;7.63;5.33;;;-1.10;99.90;;;-0.15;87.73;100732.63;4992454;28;20312;-62
2021/01/11 05:11:13;;;;;;;8.43;5.10;;;-1.00;99.90;;;-0.30;87.95;100744.59;4998819;28;20313;-68
2021/01/11 05:13:42;;;;;;;6.83;4.97;;;-1.00;99.90;;;-0.23;88.36;100740.41;5000756;28;20286;-68
2021/01/11 05:16:14;;;;;;;8.77;5.30;;;-1.10;99.90;;;-0.16;87.36;100735.41;4992001;28;20231;-68
2021/01/11 05:18:41;;;;;;;7.70;5.00;;;-1.00;99.90;;;-0.02;86.89;100733.19;4990065;28;20246;-67
2021/01/11 05:21:09;;;;;;;7.77;5.70;;;-1.00;99.90;;;0.00;86.37;100728.59;4990505;28;20287;-68
2021/01/11 05:23:38;;;;;;;7.80;5.40;;;-0.90;99.90;;;-0.03;86.24;100722.75;4990604;28;20210;-68
2021/01/11 05:26:14;;;;;;;7.70;5.03;;;-0.90;99.90;;;-0.33;87.60;100731.63;4989799;28;20240;-68
2021/01/11 05:28:43;;;;;;;7.93;5.20;;;-1.00;99.90;;;-0.03;85.88;100723.59;4990475;28;20199;-68
2021/01/11 05:31:10;;;;;;;8.50;5.07;;;-0.90;99.90;;;-0.15;86.45;100715.91;4990290;28;20219;-68
2021/01/11 05:33:53;;;;;;;7.17;5.07;;;-0.90;99.90;;;-0.25;87.83;100720.34;4990375;28;20194;-67
2021/01/11 05:36:23;;;;;;;7.10;5.00;;;-1.00;99.90;;;-0.06;87.11;100715.09;4990185;28;20215;-67
2021/01/11 05:38:51;;;;;;;8.27;5.60;;;-0.90;99.90;;;-0.07;86.26;100724.81;5069200;28;20231;-68
2021/01/11 05:41:20;;;;;;;8.23;5.17;;;-0.90;99.90;;;-0.04;85.76;100721.09;5092434;28;20227;-68
2021/01/11 05:44:09;;;;;;;8.47;5.57;;;-0.80;99.90;;;-0.13;85.82;100717.44;5092350;28;20208;-68
2021/01/11 05:46:37;;;;;;;8.93;6.20;;;-0.80;99.90;;;-0.27;87.12;100723.13;5092681;28;20211;-62
2021/01/11 05:49:06;;;;;;;7.60;5.40;;;-0.90;99.90;;;-0.27;87.39;100707.25;5092386;28;20305;-61
2021/01/11 05:51:36;;;;;;;7.70;5.30;;;-0.90;99.90;;;-0.24;86.53;100714.91;5092424;28;20717;-62
2021/01/11 05:54:05;;;;;;;5.97;5.13;;;-1.00;99.90;;;0.10;84.96;100715.38;5095550;28;20287;-62
2021/01/11 05:56:57;;;;;;;7.73;5.07;;;-0.90;99.90;;;0.08;84.48;100709.38;5096311;28;20257;-62
2021/01/11 05:59:26;;;;;;;7.80;5.63;;;-0.80;99.90;;;-0.03;85.97;100717.44;5094152;28;20237;-62
2021/01/11 06:02:01;;;;;;;8.47;5.73;;;-0.80;99.90;;;-0.13;87.04;100717.44;4993397;28;20295;-62
2021/01/11 06:04:28;;;;;;;7.83;5.07;;;-0.90;99.90;;;-0.11;86.39;100722.59;4993258;28;20279;-63
2021/01/11 06:06:56;;;;;;;7.10;5.53;;;-0.90;99.90;;;-0.02;86.21;100725.25;4992703;28;20644;-63
2021/01/11 06:09:24;;;;;;;8.33;5.53;;;-0.90;99.90;;;-0.22;87.50;100730.69;4992931;28;20753;-62
2021/01/11 06:11:54;;;;;;;9.00;5.60;;;-1.00;99.90;;;-0.11;84.97;100730.53;4993048;28;20315;-62
2021/01/11 06:14:26;;;;;;;7.73;5.57;;;-0.90;99.90;;;-0.24;87.21;100725.50;4992992;28;20273;-62
2021/01/11 06:16:54;;;;;;;7.60;5.60;;;-1.00;99.90;;;-0.22;86.86;100734.13;4993106;28;20191;-62
2021/01/11 06:19:21;;;;;;;10.77;5.73;;;-1.00;99.90;;;0.06;86.05;100726.38;4992755;28;20795;-62
2021/01/11 06:21:51;;;;;;;7.67;5.57;;;-0.90;99.90;;;-0.02;87.01;100722.59;4992878;28;20223;-62
2021/01/11 06:24:20;;;;;;;8.87;5.47;;;-0.90;99.90;;;-0.14;87.21;100733.47;4992958;28;20545;-63
2021/01/11 06:26:48;;;;;;;6.93;4.73;;;-0.90;99.90;;;0.02;86.50;100730.28;4992600;28;20286;-62
2021/01/11 06:29:31;;;;;;;9.63;5.97;;;-0.90;99.90;;;0.09;86.15;100734.88;4992806;28;20287;-61
2021/01/11 06:32:19;;;;;;;7.63;5.20;;;-0.70;99.90;;;0.12;86.46;100733.78;4992789;28;20243;-62
2021/01/11 06:34:47;;;;;;;8.33;5.87;;;-0.80;99.90;;;0.03;86.88;100727.50;4992518;28;20646;-62
2021/01/11 06:37:20;;;;;;;7.80;5.50;;;-0.70;99.90;;;-0.11;88.06;100728.75;4992243;28;20242;-62
2021/01/11 06:39:48;;;;;;;7.20;5.30;;;-0.80;99.90;;;-0.20;89.31;100737.50;4992682;28;20203;-62
2021/01/11 06:42:16;;;;;;;7.60;5.30;;;-0.90;99.90;;;-0.04;87.86;100735.16;4992579;28;20201;-62
2021/01/11 06:44:49;;;;;;;7.27;4.97;;;-0.90;99.90;;;0.11;87.31;100734.72;4992628;28;20275;-62
2021/01/11 06:47:28;;;;;;;6.87;5.43;;;-0.80;99.90;;;0.26;86.48;100728.88;4992428;28;20186;-63
2021/01/11 06:50:05;;;;;;;7.37;5.13;;;-0.70;99.90;;;0.05;87.38;100724.72;4992369;28;20216;-62
2021/01/11 06:52:36;;;;;;;7.47;5.10;;;-0.70;99.90;;;0.09;86.68;100734.03;4991775;28;20242;-62
2021/01/11 06:55:12;;;;;;;7.93;5.53;;;-0.70;99.90;;;-0.01;87.64;100718.16;4991905;28;20281;-61
2021/01/11 06:57:40;;;;;;;7.37;5.07;;;-0.70;99.90;;;-0.07;89.23;100726.66;4991893;28;20207;-62
2021/01/11 07:00:10;;;;;;;7.40;5.07;;;-0.80;99.90;;;-0.11;89.25;100727.91;4991936;28;20219;-62
2021/01/11 07:02:42;;;;;;;8.40;5.60;;;-0.80;99.90;;;-0.04;87.35;100729.03;4991003;28;20332;-61
2021/01/11 07:05:42;;;;;;;7.27;5.03;;;-0.80;99.90;;;-0.08;89.32;100715.22;4991745;28;20191;-62
2021/01/11 07:08:12;;;;;;;7.33;4.67;;;-0.80;99.90;;;-0.09;89.29;100720.66;4991754;28;20191;-62
2021/01/11 07:10:42;;;;;;;6.57;4.80;;;-0.90;99.90;;;-0.28;89.96;100712.69;4991932;28;20313;-62
2021/01/11 07:13:28;;;;;;;8.97;5.43;;;-0.90;99.90;;;-0.36;90.47;100713.38;4991770;28;20268;-62
2021/01/11 07:16:14;;;;;;;6.13;4.80;;;-1.00;99.90;;;-0.40;91.11;100714.63;4992163;28;20628;-63
2021/01/11 07:18:47;;;;;;;7.60;4.97;;;-1.00;99.90;;;-0.50;91.79;100708.47;4991867;28;20275;-63
2021/01/11 07:21:24;;;;;;;6.80;5.33;;;-1.10;99.90;;;-0.20;90.04;100695.16;4991855;28;20203;-62
2021/01/11 07:23:55;;;;;;;6.93;4.70;;;-1.10;99.90;;;-0.37;90.35;100705.56;4991996;28;20282;-62
2021/01/11 07:26:25;;;;;;;7.37;5.33;;;-1.10;99.90;;;-0.40;91.48;100719.06;4991423;28;20195;-61
2021/01/11 07:29:00;;;;;;;7.43;4.93;;;-1.10;99.90;;;-0.20;91.27;100708.38;4991640;28;20268;-62
2021/01/11 07:31:31;;;;;;;7.80;5.60;;;-1.10;99.90;;;0.03;89.61;100715.06;4991634;28;20240;-61
2021/01/11 07:34:06;;;;;;;7.37;5.17;;;-0.90;99.90;;;0.00;89.49;100711.91;4991621;28;20279;-62
2021/01/11 07:36:39;;;;;;;7.57;5.03;;;-0.80;99.90;;;0.23;88.97;100702.69;4991530;28;20203;-62
2021/01/11 07:39:19;;;;;;;7.60;5.13;;;-0.80;99.90;;;0.08;89.41;100705.88;4991746;28;20219;-62
2021/01/11 07:41:49;;;;;;;7.00;5.10;;;-0.80;99.90;;;0.25;89.28;100707.84;4991376;28;20227;-62
2021/01/11 07:44:24;;;;;;;7.00;5.03;;;-0.70;99.90;;;0.29;88.70;100709.25;4991348;28;20235;-59
2021/01/11 07:46:59;;;;;;;6.67;4.97;;;-0.60;99.90;;;0.06;88.53;100707.84;4986376;28;20307;-60
2021/01/11 07:49:28;;;;;;;7.27;4.60;;;-0.60;99.90;;;0.16;89.38;100706.03;4989167;28;20195;-61
2021/01/11 07:52:03;;;;;;;6.33;4.47;;;-0.60;99.90;;;0.28;88.05;100707.56;4991537;28;20258;-61
2021/01/11 07:54:30;;;;;;;7.30;4.90;;;-0.60;99.90;;;0.27;88.26;100704.06;4988551;28;20725;-60
2021/01/11 07:56:58;;;;;;;7.07;5.10;;;-0.60;99.90;;;0.44;86.92;100703.34;4988686;28;20637;-61
2021/01/11 07:59:26;;;;;;;8.20;5.47;;;-0.40;99.90;;;0.44;87.92;100703.34;4988274;28;20207;-59
2021/01/11 08:01:56;;;;;;;6.70;4.70;;;-0.40;99.90;;;0.35;88.30;100700.72;4988904;28;20305;-60
2021/01/11 08:04:24;;;;;;;7.03;4.80;;;-0.40;99.90;;;0.10;89.33;100701.28;4988269;28;20196;-60
2021/01/11 08:06:54;;;;;;;6.97;5.40;;;-0.50;99.90;;;0.12;89.41;100699.34;4988669;28;20260;-60
2021/01/11 08:09:25;;;;;;;7.37;5.20;;;-0.60;99.90;;;0.24;88.79;100699.03;4988036;28;20690;-61
2021/01/11 08:12:09;;;;;;;8.63;5.33;;;-0.50;99.90;;;0.38;87.68;100697.78;4988168;28;20310;-59
2021/01/11 08:14:37;;;;;;;7.93;5.27;;;-0.50;99.90;;;0.29;89.01;100696.00;4987757;28;20275;-59
2021/01/11 08:17:11;;;;;;;7.03;5.40;;;-0.50;99.90;;;0.22;89.26;100698.34;4988651;28;20250;-62
2021/01/11 08:19:41;;;;;;;7.87;5.37;;;-0.50;99.90;;;0.45;87.02;100702.38;4990241;28;20199;-62
2021/01/11 08:22:10;;;;;;;7.27;5.10;;;-0.50;99.90;;;0.50;86.75;100701.94;4991110;28;20566;-61
2021/01/11 08:24:39;;;;;;;10.07;4.80;;;-0.40;99.90;;;0.40;86.36;100695.84;4989677;28;20302;-61
2021/01/11 08:27:13;;;;;;;7.63;5.33;;;-0.40;99.90;;;0.51;87.10;100699.16;4987899;28;20258;-62
2021/01/11 08:29:42;;;;;;;6.53;4.83;;;-0.40;99.90;;;0.54;86.25;100700.69;4987846;28;20199;-59
2021/01/11 08:32:12;;;;;;;6.40;4.70;;;-0.30;99.90;;;0.76;85.19;100697.72;4987713;28;20263;-59
2021/01/11 08:34:41;;;;;;;6.73;4.53;;;-0.20;99.90;;;0.82;84.55;100697.97;4987710;28;20197;-60
2021/01/11 08:37:22;;;;;;;7.67;4.60;;;-0.10;99.90;;;0.83;84.00;100698.81;4988003;28;20614;-62
2021/01/11 08:39:57;;;;;;;5.50;4.37;;;0.00;99.90;;;0.92;84.29;100698.78;4988139;28;20211;-64
2021/01/11 08:42:26;;;;;;;7.43;4.50;;;0.10;99.90;;;1.18;82.40;100693.66;4987712;28;20203;-61
2021/01/11 08:44:54;;;;;;;5.57;4.13;;;0.30;99.90;;;1.49;79.56;100697.66;4987817;28;20203;-61
2021/01/11 08:47:30;;;;;;;6.70;3.80;;;0.40;99.90;;;1.76;77.93;100705.59;4987549;28;20205;-62
2021/01/11 08:49:59;;;;;;;7.87;4.53;;;0.60;99.90;;;1.97;76.90;100706.16;4987084;28;20184;-61
2021/01/11 08:52:29;;;;;;;6.50;4.47;;;0.90;99.90;;;1.98;75.62;100710.47;4986901;28;20510;-61
2021/01/11 08:55:08;;;;;;;6.07;4.20;;;1.10;99.90;;;2.10;75.47;100705.78;4986833;28;20700;-63
2021/01/11 08:57:35;;;;;;;9.00;4.50;;;1.10;99.90;;;2.25;74.79;100714.91;4986146;28;20245;-63
2021/01/11 09:00:09;;;;;;;6.73;4.10;;;1.20;99.90;;;2.47;72.92;100704.63;4986508;28;20227;-65
2021/01/11 09:02:45;;;;;;;6.47;4.40;;;1.30;99.90;;;2.64;72.85;100708.22;4986732;28;20195;-60
2021/01/11 09:05:17;;;;;;;11.13;4.00;;;1.50;99.90;;;2.89;73.56;100710.06;4987110;28;20278;-60
2021/01/11 09:07:45;;;;;;;5.67;4.03;;;1.70;99.90;;;2.43;72.99;100718.38;4989026;28;20202;-66
2021/01/11 09:10:23;;;;;;;7.17;4.30;;;1.60;99.90;;;2.43;73.84;100710.41;4989399;28;20294;-67
2021/01/11 09:12:51;;;;;;;7.03;4.13;;;1.60;99.90;;;2.58;73.16;100710.66;4986891;28;20198;-67
2021/01/11 09:15:28;;;;;;;4.97;3.70;;;1.60;99.90;;;2.57;71.65;100727.63;4986698;28;20291;-62
2021/01/11 09:18:07;;;;;;;6.97;4.00;;;1.60;99.90;;;2.85;71.21;100719.34;4987065;28;20194;-62
2021/01/11 09:20:36;;;;;;;4.80;3.77;;;1.80;99.90;;;2.71;70.66;100735.03;4986816;28;20286;-65
2021/01/11 09:23:03;;;;;;;5.60;4.00;;;1.90;99.90;;;2.37;72.99;100722.47;4986639;28;20312;-68
2021/01/11 09:25:32;;;;;;;5.33;3.77;;;1.80;99.90;;;2.25;71.96;100722.88;4986517;28;20845;-67
2021/01/11 09:28:05;;;;;;;4.27;3.50;;;1.60;99.90;;;2.20;71.52;100725.13;4988247;28;20207;-65
2021/01/11 09:30:33;;;;;;;5.27;3.73;;;1.50;99.90;;;2.02;73.79;100716.34;4990118;28;20196;-65
2021/01/11 09:33:01;;;;;;;5.10;3.87;;;1.40;99.90;;;2.20;73.66;100725.97;4990358;28;21079;-62
2021/01/11 09:35:30;;;;;;;4.97;3.70;;;1.40;99.90;;;2.17;72.51;100720.97;4989915;28;20247;-60
2021/01/11 09:37:57;;;;;;;6.10;4.30;;;1.40;99.90;;;2.00;72.49;100719.13;4990439;28;20292;-62
2021/01/11 09:40:25;;;;;;;6.53;4.37;;;1.30;99.90;;;2.11;73.69;100718.94;4989995;28;20268;-63
2021/01/11 09:42:53;;;;;;;5.40;3.70;;;1.20;99.90;;;2.02;72.85;100719.84;4989785;28;20211;-61
2021/01/11 09:45:20;;;;;;;6.80;3.97;;;1.30;99.90;;;2.02;73.31;100722.50;4990077;28;20207;-61
2021/01/11 09:47:47;;;;;;;5.43;4.23;;;1.20;99.90;;;1.88;74.68;100724.81;4989996;28;20663;-60
2021/01/11 09:50:17;;;;;;;6.40;4.47;;;1.20;99.90;;;2.01;74.61;100715.47;4989876;28;20203;-61
2021/01/11 09:52:45;;;;;;;9.23;4.93;;;1.20;99.90;;;2.10;73.89;100727.03;4989716;28;20717;-62
2021/01/11 09:55:15;;;;;;;7.13;4.53;;;1.20;99.90;;;2.01;74.02;100726.13;4989883;28;20769;-61
2021/01/11 09:57:43;;;;;;;7.33;4.37;;;1.30;99.90;;;1.97;74.86;100729.22;4989853;28;20252;-62
2021/01/11 10:00:14;;;;;;;6.17;3.93;;;1.20;99.90;;;1.92;74.29;100720.88;4989869;28;20633;-63
2021/01/11 10:02:47;;;;;;;8.03;4.20;;;1.20;99.90;;;1.99;75.78;100730.75;4990036;28;20217;-62
2021/01/11 10:05:16;;;;;;;5.63;3.97;;;1.10;99.90;;;2.27;73.63;100720.88;4989522;28;20365;-60
2021/01/11 10:07:45;;;;;;;5.77;4.23;;;1.20;99.90;;;2.16;73.73;100719.31;4989356;28;20594;-64
2021/01/11 10:10:13;;;;;;;6.37;4.30;;;1.30;99.90;;;2.46;73.88;100704.78;4989390;28;20566;-61
2021/01/11 10:12:41;;;;;;;6.10;4.13;;;1.40;99.90;;;2.39;72.88;100701.91;4989302;28;20327;-61
2021/01/11 10:15:10;;;;;;;6.47;4.00;;;1.50;99.90;;;2.40;73.01;100698.25;4990037;28;20341;-63
2021/01/11 10:17:38;;;;;;;6.67;4.47;;;1.50;99.90;;;2.41;73.57;100689.28;4989610;28;20739;-61
2021/01/11 10:20:08;;;;;;;5.13;4.03;;;1.50;99.90;;;2.41;73.90;100693.75;4989560;28;20204;-60
2021/01/11 10:22:38;;;;;;;4.40;3.57;;;1.60;99.90;;;2.60;72.47;100690.09;4989449;28;20186;-59
2021/01/11 10:25:08;;;;;;;6.70;4.20;;;1.70;99.90;;;2.42;74.59;100688.28;4988984;28;20204;-60
2021/01/11 10:27:35;;;;;;;6.47;4.50;;;1.70;99.90;;;2.53;74.17;100689.03;4989218;28;20238;-59